createdAt,value
2022-12-31T00:01:46.213Z,86.27
2022-12-31T00:06:49.919Z,86.38
2022-12-31T00:11:53.533Z,86.09
2022-12-31T00:16:57.083Z,86.25
2022-12-31T00:22:00.664Z,86.24
2022-12-31T00:27:04.297Z,86.23
2022-12-31T00:32:07.913Z,86.25
2022-12-31T00:37:11.934Z,86.54
2022-12-31T00:42:15.446Z,86.70
2022-12-31T00:47:19.063Z,86.67
2022-12-31T00:52:22.478Z,86.62
2022-12-31T00:57:25.993Z,86.60
2022-12-31T01:02:29.778Z,86.58
2022-12-31T01:07:33.536Z,86.49
2022-12-31T01:12:37.063Z,86.08
2022-12-31T01:17:40.569Z,86.09
2022-12-31T01:22:44.090Z,85.95
2022-12-31T01:27:47.902Z,85.96
2022-12-31T01:32:51.315Z,85.87
2022-12-31T01:37:55.140Z,85.83
2022-12-31T01:42:59.269Z,85.85
2022-12-31T01:48:02.999Z,85.76
2022-12-31T01:53:09.165Z,85.64
2022-12-31T01:58:27.139Z,85.61
2022-12-31T02:03:31.326Z,85.45
2022-12-31T02:08:41.767Z,85.22
2022-12-31T02:13:45.863Z,85.27
2022-12-31T02:19:05.371Z,84.84
2022-12-31T02:24:41.020Z,84.59
2022-12-31T02:30:09.526Z,84.78
2022-12-31T02:35:18.670Z,84.27
2022-12-31T02:40:23.239Z,84.26
2022-12-31T02:46:06.186Z,83.62
2022-12-31T02:51:32.499Z,83.20
2022-12-31T02:56:50.047Z,83.44
2022-12-31T03:02:16.193Z,83.28
2022-12-31T03:07:28.414Z,82.95
2022-12-31T03:12:47.187Z,82.87
2022-12-31T03:17:59.938Z,82.86
2022-12-31T03:23:08.459Z,83.36
2022-12-31T03:28:16.048Z,83.15
2022-12-31T03:33:19.880Z,83.17
2022-12-31T03:38:23.292Z,82.96
2022-12-31T03:43:26.809Z,82.86
2022-12-31T03:48:30.835Z,82.62
2022-12-31T03:53:35.906Z,82.52
2022-12-31T03:58:39.304Z,82.61
2022-12-31T04:03:42.817Z,82.45
2022-12-31T04:08:46.235Z,82.62
2022-12-31T04:13:49.845Z,82.31
2022-12-31T04:18:53.260Z,82.43
2022-12-31T04:23:56.880Z,82.64
2022-12-31T04:29:00.495Z,82.40
2022-12-31T04:34:04.115Z,82.56
2022-12-31T04:39:07.746Z,82.73
2022-12-31T04:44:11.145Z,82.90
2022-12-31T04:49:14.776Z,83.44
2022-12-31T04:54:18.279Z,83.66
2022-12-31T04:59:21.909Z,83.98
2022-12-31T05:04:25.925Z,84.51
2022-12-31T05:09:30.054Z,84.64
2022-12-31T05:14:33.466Z,84.87
2022-12-31T05:19:36.881Z,85.21
2022-12-31T05:24:40.403Z,85.56
2022-12-31T05:29:43.910Z,85.77
2022-12-31T05:34:47.643Z,86.48
2022-12-31T05:39:51.147Z,86.80
2022-12-31T05:44:54.669Z,87.25
2022-12-31T05:49:58.181Z,87.46
2022-12-31T05:55:01.696Z,88.36
2022-12-31T06:00:07.182Z,88.32
2022-12-31T06:05:10.730Z,88.63
2022-12-31T06:10:14.160Z,88.74
2022-12-31T06:15:18.012Z,89.30
2022-12-31T06:20:21.434Z,89.18
2022-12-31T06:25:24.936Z,89.39
2022-12-31T06:30:28.560Z,89.33
2022-12-31T06:35:32.073Z,89.49
2022-12-31T06:40:38.056Z,89.46
2022-12-31T06:45:41.462Z,89.72
2022-12-31T06:50:44.965Z,89.73
2022-12-31T06:55:49.737Z,89.90
2022-12-31T07:01:31.803Z,90.17
2022-12-31T07:06:48.357Z,90.75
2022-12-31T07:11:56.683Z,91.18
2022-12-31T07:17:21.602Z,91.10
2022-12-31T07:22:25.839Z,91.21
2022-12-31T07:27:47.384Z,91.20
2022-12-31T07:33:19.261Z,91.04
2022-12-31T07:38:37.617Z,90.93
2022-12-31T07:44:11.659Z,90.92
2022-12-31T07:49:16.082Z,91.18
2022-12-31T07:54:19.498Z,91.18
2022-12-31T07:59:53.529Z,90.96
2022-12-31T08:05:38.317Z,90.89
2022-12-31T08:11:03.842Z,90.93
2022-12-31T08:16:11.996Z,90.87
2022-12-31T08:21:53.988Z,91.13
2022-12-31T08:27:17.366Z,91.06
2022-12-31T08:32:32.360Z,90.62
2022-12-31T08:37:43.971Z,90.26
2022-12-31T08:43:18.808Z,90.24
2022-12-31T08:48:41.369Z,90.28
2022-12-31T08:53:45.302Z,90.41
2022-12-31T08:59:30.083Z,89.93
2022-12-31T09:04:45.480Z,89.76
2022-12-31T09:10:06.698Z,89.68
2022-12-31T09:15:20.866Z,89.98
2022-12-31T09:20:41.818Z,90.06
2022-12-31T09:26:01.186Z,90.10
2022-12-31T09:31:14.209Z,89.86
2022-12-31T09:36:36.582Z,89.85
2022-12-31T09:42:22.994Z,89.55
2022-12-31T09:48:15.883Z,89.69
2022-12-31T09:53:27.068Z,89.61
2022-12-31T09:58:51.675Z,89.69
2022-12-31T10:04:10.447Z,90.03
2022-12-31T10:09:58.816Z,89.94
2022-12-31T10:15:24.347Z,90.15
2022-12-31T10:20:47.125Z,90.32
2022-12-31T10:25:59.639Z,90.34
2022-12-31T10:31:17.292Z,90.46
2022-12-31T10:36:33.228Z,90.33
2022-12-31T10:42:04.457Z,90.55
2022-12-31T10:47:26.611Z,90.47
2022-12-31T10:52:35.641Z,90.34
2022-12-31T10:58:11.017Z,91.07
2022-12-31T11:03:32.924Z,90.67
2022-12-31T11:09:07.714Z,90.77
2022-12-31T11:14:23.017Z,90.98
2022-12-31T11:20:04.003Z,91.12
2022-12-31T11:25:33.832Z,91.22
2022-12-31T11:30:56.181Z,91.35
2022-12-31T11:36:38.722Z,91.56
2022-12-31T11:42:04.663Z,91.53
2022-12-31T11:47:49.649Z,91.94
2022-12-31T11:53:44.772Z,92.00
2022-12-31T11:58:51.768Z,92.22
2022-12-31T12:03:55.449Z,92.76
2022-12-31T12:09:13.754Z,92.82
2022-12-31T12:14:37.952Z,93.16
2022-12-31T12:19:53.447Z,93.68
2022-12-31T12:25:16.534Z,94.17
2022-12-31T12:30:22.400Z,94.32
2022-12-31T12:35:31.884Z,94.79
2022-12-31T12:40:36.104Z,95.12
2022-12-31T12:45:51.761Z,95.28
2022-12-31T12:50:56.014Z,95.45
2022-12-31T12:56:07.212Z,96.16
2022-12-31T13:01:21.431Z,95.76
2022-12-31T13:06:37.222Z,95.74
2022-12-31T13:12:05.580Z,96.03
2022-12-31T13:17:32.957Z,95.87
2022-12-31T13:22:45.069Z,96.11
2022-12-31T13:27:54.549Z,96.29
2022-12-31T13:33:04.698Z,96.12
2022-12-31T13:38:23.476Z,96.29
2022-12-31T13:43:50.997Z,96.26
2022-12-31T13:49:03.472Z,96.38
2022-12-31T13:54:16.005Z,96.57
2022-12-31T13:59:29.272Z,96.24
2022-12-31T14:04:48.018Z,96.34
2022-12-31T14:09:51.427Z,96.38
2022-12-31T14:15:00.995Z,96.36
2022-12-31T14:20:32.970Z,96.14
2022-12-31T14:25:46.827Z,96.00
2022-12-31T14:30:53.540Z,95.92
2022-12-31T14:36:25.498Z,96.42
2022-12-31T14:41:50.213Z,96.31
2022-12-31T14:47:41.242Z,95.86
2022-12-31T14:53:10.051Z,95.76
2022-12-31T14:58:30.016Z,96.01
2022-12-31T15:03:45.108Z,95.74
2022-12-31T15:09:08.815Z,95.79
2022-12-31T15:14:37.585Z,95.83
2022-12-31T15:20:11.498Z,95.77
2022-12-31T15:25:19.997Z,95.23
2022-12-31T15:30:30.659Z,94.91
2022-12-31T15:35:56.217Z,94.57
2022-12-31T15:41:00.953Z,94.16
2022-12-31T15:46:16.715Z,94.05
2022-12-31T15:51:26.112Z,94.18
2022-12-31T15:56:39.767Z,93.60
2022-12-31T16:01:45.160Z,93.87
2022-12-31T16:06:51.198Z,93.58
2022-12-31T16:11:57.387Z,93.41
2022-12-31T16:17:01.720Z,93.27
2022-12-31T16:22:17.260Z,93.39
2022-12-31T16:27:20.929Z,93.29
2022-12-31T16:32:24.549Z,93.03
2022-12-31T16:37:28.075Z,92.75
2022-12-31T16:42:31.690Z,92.53
2022-12-31T16:47:38.473Z,92.51
2022-12-31T16:52:45.475Z,92.61
2022-12-31T16:58:00.669Z,92.47
2022-12-31T17:03:22.359Z,92.50
2022-12-31T17:08:42.222Z,92.62
2022-12-31T17:13:54.861Z,92.59
2022-12-31T17:18:58.859Z,92.50
2022-12-31T17:24:06.237Z,92.54
2022-12-31T17:29:26.075Z,92.28
2022-12-31T17:34:33.891Z,92.23
2022-12-31T17:40:49.856Z,92.33
2022-12-31T17:45:26.172Z,92.38
2022-12-31T17:50:29.790Z,92.47
2022-12-31T17:55:33.941Z,92.81
2022-12-31T18:00:37.788Z,93.22
2022-12-31T18:05:41.263Z,93.37
2022-12-31T18:10:45.507Z,93.60
2022-12-31T18:15:48.800Z,94.15
2022-12-31T18:20:55.362Z,94.24
2022-12-31T18:25:58.907Z,94.47
2022-12-31T18:31:02.525Z,94.65
2022-12-31T18:36:12.285Z,95.02
2022-12-31T18:41:21.063Z,94.95
2022-12-31T18:46:25.565Z,95.05
2022-12-31T18:51:32.025Z,95.31
2022-12-31T18:56:36.074Z,95.09
2022-12-31T19:01:41.311Z,94.91
2022-12-31T19:06:44.959Z,95.20
2022-12-31T19:11:49.285Z,95.03
2022-12-31T19:16:54.495Z,95.24
2022-12-31T19:21:57.965Z,95.26
2022-12-31T19:27:02.511Z,95.24
2022-12-31T19:32:06.332Z,95.23
2022-12-31T19:37:15.715Z,95.37
2022-12-31T19:42:19.290Z,95.32
2022-12-31T19:47:22.903Z,95.50
2022-12-31T19:52:26.430Z,95.63
2022-12-31T19:57:29.837Z,95.58
2022-12-31T20:03:36.976Z,95.62
2022-12-31T20:08:43.450Z,95.46
2022-12-31T20:13:48.582Z,95.24
2022-12-31T20:18:52.503Z,95.46
2022-12-31T20:23:56.132Z,95.31
2022-12-31T20:28:59.739Z,95.02
2022-12-31T20:34:03.354Z,95.09
2022-12-31T20:39:07.484Z,94.91
2022-12-31T20:44:11.110Z,94.99
2022-12-31T20:49:14.722Z,95.00
2022-12-31T20:54:18.647Z,94.77
2022-12-31T20:59:22.058Z,94.60
2022-12-31T21:04:26.114Z,94.41
2022-12-31T21:09:29.603Z,94.23
2022-12-31T21:14:33.123Z,94.15
2022-12-31T21:19:36.849Z,93.79
2022-12-31T21:24:40.250Z,93.61
2022-12-31T21:30:16.364Z,93.62
2022-12-31T21:35:41.260Z,93.49
2022-12-31T21:40:31.669Z,93.50
2022-12-31T21:45:35.082Z,93.29
2022-12-31T21:50:38.706Z,93.30
2022-12-31T21:56:00.462Z,93.12
2022-12-31T22:01:23.081Z,93.06
2022-12-31T22:06:27.432Z,92.69
2022-12-31T22:11:30.758Z,92.29
2022-12-31T22:16:34.499Z,92.00
2022-12-31T22:21:38.091Z,91.88
2022-12-31T22:26:46.459Z,91.94
2022-12-31T22:31:50.538Z,91.62
2022-12-31T22:36:54.154Z,91.43
2022-12-31T22:41:57.669Z,91.31
2022-12-31T22:47:01.146Z,91.40
2022-12-31T22:52:08.806Z,91.10
2022-12-31T22:57:19.688Z,91.03
2022-12-31T23:02:23.824Z,90.76
2022-12-31T23:07:27.337Z,90.69
2022-12-31T23:12:30.747Z,90.57
2022-12-31T23:17:52.899Z,89.91
2022-12-31T23:23:08.779Z,89.33
2022-12-31T23:28:15.568Z,89.13
2022-12-31T23:33:24.466Z,88.72
2022-12-31T23:38:27.952Z,88.19
2022-12-31T23:43:31.469Z,87.42
2022-12-31T23:48:35.092Z,87.24
2022-12-31T23:53:39.010Z,86.72
2022-12-31T23:58:42.736Z,86.76
